sensor_id;sensor_type;location;lat;lon;timestamp;temperature;humidity
5346;DHT22;2695;49.444;11.054;2023-03-04T00:00:06;3.70;98.70
5346;DHT22;2695;49.444;11.054;2023-03-04T00:02:34;3.70;98.90
5346;DHT22;2695;49.444;11.054;2023-03-04T00:05:02;3.60;98.80
5346;DHT22;2695;49.444;11.054;2023-03-04T00:07:35;3.60;99.10
5346;DHT22;2695;49.444;11.054;2023-03-04T00:10:03;3.60;99.20
5346;DHT22;2695;49.444;11.054;2023-03-04T00:12:31;3.50;99.70
5346;DHT22;2695;49.444;11.054;2023-03-04T00:14:59;3.50;99.70
5346;DHT22;2695;49.444;11.054;2023-03-04T00:17:27;3.50;99.90
5346;DHT22;2695;49.444;11.054;2023-03-04T00:19:57;3.40;99.90
5346;DHT22;2695;49.444;11.054;2023-03-04T00:22:25;3.30;99.90
5346;DHT22;2695;49.444;11.054;2023-03-04T00:24:54;3.30;99.90
5346;DHT22;2695;49.444;11.054;2023-03-04T00:27:22;3.30;99.90
5346;DHT22;2695;49.444;11.054;2023-03-04T00:29:50;3.30;99.90
5346;DHT22;2695;49.444;11.054;2023-03-04T00:32:18;3.30;99.90
5346;DHT22;2695;49.444;11.054;2023-03-04T00:34:46;3.30;99.90
5346;DHT22;2695;49.444;11.054;2023-03-04T00:37:14;3.30;99.90
5346;DHT22;2695;49.444;11.054;2023-03-04T00:39:42;3.30;99.90
5346;DHT22;2695;49.444;11.054;2023-03-04T00:42:11;3.30;99.90
5346;DHT22;2695;49.444;11.054;2023-03-04T00:44:39;3.30;99.90
5346;DHT22;2695;49.444;11.054;2023-03-04T00:47:07;3.20;99.90
5346;DHT22;2695;49.444;11.054;2023-03-04T00:49:35;3.20;99.90
5346;DHT22;2695;49.444;11.054;2023-03-04T00:52:04;3.20;99.90
5346;DHT22;2695;49.444;11.054;2023-03-04T00:54:32;3.20;99.90
5346;DHT22;2695;49.444;11.054;2023-03-04T00:57:00;3.10;99.90
5346;DHT22;2695;49.444;11.054;2023-03-04T00:59:30;3.10;99.90
5346;DHT22;2695;49.444;11.054;2023-03-04T01:01:58;3.10;99.90
5346;DHT22;2695;49.444;11.054;2023-03-04T01:04:26;3.10;99.90
5346;DHT22;2695;49.444;11.054;2023-03-04T01:06:54;3.10;99.90
5346;DHT22;2695;49.444;11.054;2023-03-04T01:09:22;3.10;99.90
5346;DHT22;2695;49.444;11.054;2023-03-04T01:11:50;3.00;99.90
5346;DHT22;2695;49.444;11.054;2023-03-04T01:14:18;3.00;99.90
5346;DHT22;2695;49.444;11.054;2023-03-04T01:16:48;2.90;99.90
5346;DHT22;2695;49.444;11.054;2023-03-04T01:19:16;2.80;99.90
5346;DHT22;2695;49.444;11.054;2023-03-04T01:21:44;2.80;99.90
5346;DHT22;2695;49.444;11.054;2023-03-04T01:24:12;2.80;99.90
5346;DHT22;2695;49.444;11.054;2023-03-04T01:26:40;2.80;99.90
5346;DHT22;2695;49.444;11.054;2023-03-04T01:29:08;2.70;99.90
5346;DHT22;2695;49.444;11.054;2023-03-04T01:31:36;2.70;99.90
5346;DHT22;2695;49.444;11.054;2023-03-04T01:34:06;2.60;99.90
5346;DHT22;2695;49.444;11.054;2023-03-04T01:36:35;2.60;99.90
5346;DHT22;2695;49.444;11.054;2023-03-04T01:39:03;2.60;99.90
5346;DHT22;2695;49.444;11.054;2023-03-04T01:41:31;2.60;99.90
5346;DHT22;2695;49.444;11.054;2023-03-04T01:44:00;2.50;99.90
5346;DHT22;2695;49.444;11.054;2023-03-04T01:46:29;2.50;99.90
5346;DHT22;2695;49.444;11.054;2023-03-04T01:48:58;2.50;99.90
5346;DHT22;2695;49.444;11.054;2023-03-04T01:51:28;2.50;99.90
5346;DHT22;2695;49.444;11.054;2023-03-04T01:53:56;2.50;99.90
5346;DHT22;2695;49.444;11.054;2023-03-04T01:56:28;2.50;99.90
5346;DHT22;2695;49.444;11.054;2023-03-04T01:59:07;2.50;99.90
5346;DHT22;2695;49.444;11.054;2023-03-04T02:01:36;2.40;99.90
5346;DHT22;2695;49.444;11.054;2023-03-04T02:04:05;2.40;99.90
5346;DHT22;2695;49.444;11.054;2023-03-04T02:06:36;2.40;99.90
5346;DHT22;2695;49.444;11.054;2023-03-04T02:09:06;2.30;99.90
5346;DHT22;2695;49.444;11.054;2023-03-04T02:11:35;2.30;99.90
5346;DHT22;2695;49.444;11.054;2023-03-04T02:14:05;2.20;99.90
5346;DHT22;2695;49.444;11.054;2023-03-04T02:16:33;2.20;99.90
5346;DHT22;2695;49.444;11.054;2023-03-04T02:19:01;2.10;99.90
5346;DHT22;2695;49.444;11.054;2023-03-04T02:21:33;2.10;99.90
5346;DHT22;2695;49.444;11.054;2023-03-04T02:24:08;2.10;99.90
5346;DHT22;2695;49.444;11.054;2023-03-04T02:26:42;2.00;99.90
5346;DHT22;2695;49.444;11.054;2023-03-04T02:29:14;2.00;99.90
5346;DHT22;2695;49.444;11.054;2023-03-04T02:31:44;1.90;99.90
5346;DHT22;2695;49.444;11.054;2023-03-04T02:34:14;1.90;99.90
5346;DHT22;2695;49.444;11.054;2023-03-04T02:36:44;1.90;99.90
5346;DHT22;2695;49.444;11.054;2023-03-04T02:39:22;1.80;99.90
5346;DHT22;2695;49.444;11.054;2023-03-04T02:41:54;1.80;99.90
5346;DHT22;2695;49.444;11.054;2023-03-04T02:44:24;1.70;99.90
5346;DHT22;2695;49.444;11.054;2023-03-04T02:46:53;1.60;99.90
5346;DHT22;2695;49.444;11.054;2023-03-04T02:49:23;1.70;99.90
5346;DHT22;2695;49.444;11.054;2023-03-04T02:51:51;1.70;99.90
5346;DHT22;2695;49.444;11.054;2023-03-04T02:54:22;1.70;99.90
5346;DHT22;2695;49.444;11.054;2023-03-04T02:56:51;1.60;99.90
5346;DHT22;2695;49.444;11.054;2023-03-04T02:59:22;1.60;99.90
5346;DHT22;2695;49.444;11.054;2023-03-04T03:01:50;1.60;99.90
5346;DHT22;2695;49.444;11.054;2023-03-04T03:04:19;1.60;99.90
5346;DHT22;2695;49.444;11.054;2023-03-04T03:06:47;1.50;99.90
5346;DHT22;2695;49.444;11.054;2023-03-04T03:09:16;1.50;99.90
5346;DHT22;2695;49.444;11.054;2023-03-04T03:11:44;1.50;99.90
5346;DHT22;2695;49.444;11.054;2023-03-04T03:14:12;1.50;99.90
5346;DHT22;2695;49.444;11.054;2023-03-04T03:16:41;1.50;99.90
5346;DHT22;2695;49.444;11.054;2023-03-04T03:19:09;1.40;99.90
5346;DHT22;2695;49.444;11.054;2023-03-04T03:21:37;1.50;99.90
5346;DHT22;2695;49.444;11.054;2023-03-04T03:24:05;1.30;99.90
5346;DHT22;2695;49.444;11.054;2023-03-04T03:26:34;1.20;99.90
5346;DHT22;2695;49.444;11.054;2023-03-04T03:29:03;1.30;99.90
5346;DHT22;2695;49.444;11.054;2023-03-04T03:31:31;1.30;99.90
5346;DHT22;2695;49.444;11.054;2023-03-04T03:34:01;1.30;99.90
5346;DHT22;2695;49.444;11.054;2023-03-04T03:36:30;1.30;99.90
5346;DHT22;2695;49.444;11.054;2023-03-04T03:38:58;1.20;99.90
5346;DHT22;2695;49.444;11.054;2023-03-04T03:41:26;1.20;99.90
5346;DHT22;2695;49.444;11.054;2023-03-04T03:43:54;1.10;99.90
5346;DHT22;2695;49.444;11.054;2023-03-04T03:46:22;1.10;99.90
5346;DHT22;2695;49.444;11.054;2023-03-04T03:48:50;1.00;99.90
5346;DHT22;2695;49.444;11.054;2023-03-04T03:51:19;1.00;99.90
5346;DHT22;2695;49.444;11.054;2023-03-04T03:53:48;1.00;99.90
5346;DHT22;2695;49.444;11.054;2023-03-04T03:56:16;1.10;99.90
5346;DHT22;2695;49.444;11.054;2023-03-04T03:58:44;1.10;99.90
5346;DHT22;2695;49.444;11.054;2023-03-04T04:01:12;1.10;99.90
5346;DHT22;2695;49.444;11.054;2023-03-04T04:03:40;1.20;99.90
5346;DHT22;2695;49.444;11.054;2023-03-04T04:06:08;1.20;99.90
5346;DHT22;2695;49.444;11.054;2023-03-04T04:08:38;1.30;99.90
5346;DHT22;2695;49.444;11.054;2023-03-04T04:11:08;1.30;99.90
5346;DHT22;2695;49.444;11.054;2023-03-04T04:13:36;1.30;99.90
5346;DHT22;2695;49.444;11.054;2023-03-04T04:16:06;1.30;99.90
5346;DHT22;2695;49.444;11.054;2023-03-04T04:18:34;1.40;99.90
5346;DHT22;2695;49.444;11.054;2023-03-04T04:21:03;1.50;99.90
5346;DHT22;2695;49.444;11.054;2023-03-04T04:23:31;1.50;99.90
5346;DHT22;2695;49.444;11.054;2023-03-04T04:26:01;1.50;99.90
5346;DHT22;2695;49.444;11.054;2023-03-04T04:28:29;1.50;99.90
5346;DHT22;2695;49.444;11.054;2023-03-04T04:30:57;1.50;99.90
5346;DHT22;2695;49.444;11.054;2023-03-04T04:33:25;1.50;99.90
5346;DHT22;2695;49.444;11.054;2023-03-04T04:35:53;1.50;99.90
5346;DHT22;2695;49.444;11.054;2023-03-04T04:38:21;1.60;99.90
5346;DHT22;2695;49.444;11.054;2023-03-04T04:40:50;1.60;99.90
5346;DHT22;2695;49.444;11.054;2023-03-04T04:43:19;1.60;99.90
5346;DHT22;2695;49.444;11.054;2023-03-04T04:45:47;1.60;99.90
5346;DHT22;2695;49.444;11.054;2023-03-04T04:48:15;1.60;99.90
5346;DHT22;2695;49.444;11.054;2023-03-04T04:50:43;1.70;99.90
5346;DHT22;2695;49.444;11.054;2023-03-04T04:53:12;1.70;99.90
5346;DHT22;2695;49.444;11.054;2023-03-04T04:55:40;1.80;99.90
5346;DHT22;2695;49.444;11.054;2023-03-04T04:58:08;1.80;99.90
5346;DHT22;2695;49.444;11.054;2023-03-04T05:00:37;1.80;99.90
5346;DHT22;2695;49.444;11.054;2023-03-04T05:03:05;1.80;99.90
5346;DHT22;2695;49.444;11.054;2023-03-04T05:05:33;1.80;99.90
5346;DHT22;2695;49.444;11.054;2023-03-04T05:08:01;1.70;99.90
5346;DHT22;2695;49.444;11.054;2023-03-04T05:10:29;1.70;99.90
5346;DHT22;2695;49.444;11.054;2023-03-04T05:12:58;1.80;99.90
5346;DHT22;2695;49.444;11.054;2023-03-04T05:15:26;1.70;99.90
5346;DHT22;2695;49.444;11.054;2023-03-04T05:17:55;1.80;99.90
5346;DHT22;2695;49.444;11.054;2023-03-04T05:20:23;1.70;99.90
5346;DHT22;2695;49.444;11.054;2023-03-04T05:22:53;1.70;99.90
5346;DHT22;2695;49.444;11.054;2023-03-04T05:25:21;1.70;99.90
5346;DHT22;2695;49.444;11.054;2023-03-04T05:27:49;1.70;99.90
5346;DHT22;2695;49.444;11.054;2023-03-04T05:30:17;1.70;99.90
5346;DHT22;2695;49.444;11.054;2023-03-04T05:32:45;1.70;99.90
5346;DHT22;2695;49.444;11.054;2023-03-04T05:35:15;1.70;99.90
5346;DHT22;2695;49.444;11.054;2023-03-04T05:37:43;1.70;99.90
5346;DHT22;2695;49.444;11.054;2023-03-04T05:40:12;1.70;99.90
5346;DHT22;2695;49.444;11.054;2023-03-04T05:42:40;1.80;99.90
5346;DHT22;2695;49.444;11.054;2023-03-04T05:45:08;1.80;99.90
5346;DHT22;2695;49.444;11.054;2023-03-04T05:47:36;1.80;99.90
5346;DHT22;2695;49.444;11.054;2023-03-04T05:50:05;1.80;99.90
5346;DHT22;2695;49.444;11.054;2023-03-04T05:52:35;1.80;99.90
5346;DHT22;2695;49.444;11.054;2023-03-04T05:55:03;1.80;99.90
5346;DHT22;2695;49.444;11.054;2023-03-04T05:57:31;1.80;99.90
5346;DHT22;2695;49.444;11.054;2023-03-04T05:59:59;1.70;99.90
5346;DHT22;2695;49.444;11.054;2023-03-04T06:02:27;2.20;99.90
5346;DHT22;2695;49.444;11.054;2023-03-04T06:04:55;1.70;99.90
5346;DHT22;2695;49.444;11.054;2023-03-04T06:07:23;1.80;99.90
5346;DHT22;2695;49.444;11.054;2023-03-04T06:09:53;1.80;99.90
5346;DHT22;2695;49.444;11.054;2023-03-04T06:12:20;1.90;99.90
5346;DHT22;2695;49.444;11.054;2023-03-04T06:14:48;1.90;99.90
5346;DHT22;2695;49.444;11.054;2023-03-04T06:17:16;1.90;99.90
5346;DHT22;2695;49.444;11.054;2023-03-04T06:19:44;1.90;99.90
5346;DHT22;2695;49.444;11.054;2023-03-04T06:22:12;1.90;99.90
5346;DHT22;2695;49.444;11.054;2023-03-04T06:24:40;2.00;99.90
5346;DHT22;2695;49.444;11.054;2023-03-04T06:27:10;2.00;99.90
5346;DHT22;2695;49.444;11.054;2023-03-04T06:29:39;2.10;99.90
5346;DHT22;2695;49.444;11.054;2023-03-04T06:32:07;2.00;99.90
5346;DHT22;2695;49.444;11.054;2023-03-04T06:34:35;2.10;99.90
5346;DHT22;2695;49.444;11.054;2023-03-04T06:37:03;2.00;99.90
5346;DHT22;2695;49.444;11.054;2023-03-04T06:39:31;2.00;99.90
5346;DHT22;2695;49.444;11.054;2023-03-04T06:42:00;2.00;99.90
5346;DHT22;2695;49.444;11.054;2023-03-04T06:44:29;2.10;99.90
5346;DHT22;2695;49.444;11.054;2023-03-04T06:46:57;2.10;99.90
5346;DHT22;2695;49.444;11.054;2023-03-04T06:49:25;2.10;99.90
5346;DHT22;2695;49.444;11.054;2023-03-04T06:51:53;2.10;99.90
5346;DHT22;2695;49.444;11.054;2023-03-04T06:54:22;2.20;99.90
5346;DHT22;2695;49.444;11.054;2023-03-04T06:56:50;2.20;99.90
5346;DHT22;2695;49.444;11.054;2023-03-04T06:59:18;2.30;99.90
5346;DHT22;2695;49.444;11.054;2023-03-04T07:01:47;2.30;99.90
5346;DHT22;2695;49.444;11.054;2023-03-04T07:04:15;2.40;99.90
5346;DHT22;2695;49.444;11.054;2023-03-04T07:06:43;2.40;99.90
5346;DHT22;2695;49.444;11.054;2023-03-04T07:09:11;2.50;99.90
5346;DHT22;2695;49.444;11.054;2023-03-04T07:11:39;2.60;99.90
5346;DHT22;2695;49.444;11.054;2023-03-04T07:14:07;2.60;99.90
5346;DHT22;2695;49.444;11.054;2023-03-04T07:16:36;2.70;99.90
5346;DHT22;2695;49.444;11.054;2023-03-04T07:19:05;2.80;99.90
5346;DHT22;2695;49.444;11.054;2023-03-04T07:21:33;2.80;99.90
5346;DHT22;2695;49.444;11.054;2023-03-04T07:24:01;2.70;99.90
5346;DHT22;2695;49.444;11.054;2023-03-04T07:26:30;2.70;99.90
5346;DHT22;2695;49.444;11.054;2023-03-04T07:28:59;2.70;99.90
5346;DHT22;2695;49.444;11.054;2023-03-04T07:31:29;2.60;99.90
5346;DHT22;2695;49.444;11.054;2023-03-04T07:33:59;2.70;99.90
5346;DHT22;2695;49.444;11.054;2023-03-04T07:36:29;2.70;99.90
5346;DHT22;2695;49.444;11.054;2023-03-04T07:38:57;2.70;99.90
5346;DHT22;2695;49.444;11.054;2023-03-04T07:41:27;2.80;99.90
5346;DHT22;2695;49.444;11.054;2023-03-04T07:43:56;2.90;99.90
5346;DHT22;2695;49.444;11.054;2023-03-04T07:46:25;3.00;99.90
5346;DHT22;2695;49.444;11.054;2023-03-04T07:48:54;3.10;99.90
5346;DHT22;2695;49.444;11.054;2023-03-04T07:51:24;3.10;99.90
5346;DHT22;2695;49.444;11.054;2023-03-04T07:53:56;3.20;99.90
5346;DHT22;2695;49.444;11.054;2023-03-04T07:56:27;3.30;99.90
5346;DHT22;2695;49.444;11.054;2023-03-04T07:58:56;3.40;99.90
5346;DHT22;2695;49.444;11.054;2023-03-04T08:01:26;3.40;99.90
5346;DHT22;2695;49.444;11.054;2023-03-04T08:03:55;3.40;99.90
5346;DHT22;2695;49.444;11.054;2023-03-04T08:06:24;3.50;99.90
5346;DHT22;2695;49.444;11.054;2023-03-04T08:08:57;3.60;99.90
5346;DHT22;2695;49.444;11.054;2023-03-04T08:11:27;3.60;99.90
5346;DHT22;2695;49.444;11.054;2023-03-04T08:13:56;3.70;99.90
5346;DHT22;2695;49.444;11.054;2023-03-04T08:16:25;3.70;99.90
5346;DHT22;2695;49.444;11.054;2023-03-04T08:18:55;3.80;99.90
5346;DHT22;2695;49.444;11.054;2023-03-04T08:21:25;3.80;99.90
5346;DHT22;2695;49.444;11.054;2023-03-04T08:23:55;3.80;99.90
5346;DHT22;2695;49.444;11.054;2023-03-04T08:26:28;3.70;99.90
5346;DHT22;2695;49.444;11.054;2023-03-04T08:28:57;3.70;99.90
5346;DHT22;2695;49.444;11.054;2023-03-04T08:31:25;3.80;99.90
5346;DHT22;2695;49.444;11.054;2023-03-04T08:33:53;3.80;99.90
5346;DHT22;2695;49.444;11.054;2023-03-04T08:36:22;3.90;99.90
5346;DHT22;2695;49.444;11.054;2023-03-04T08:38:50;3.90;99.90
5346;DHT22;2695;49.444;11.054;2023-03-04T08:41:18;4.00;99.90
5346;DHT22;2695;49.444;11.054;2023-03-04T08:43:48;4.10;99.90
5346;DHT22;2695;49.444;11.054;2023-03-04T08:46:16;4.10;99.90
5346;DHT22;2695;49.444;11.054;2023-03-04T08:48:45;4.20;99.90
5346;DHT22;2695;49.444;11.054;2023-03-04T08:51:14;4.20;99.90
5346;DHT22;2695;49.444;11.054;2023-03-04T08:53:43;4.10;99.90
5346;DHT22;2695;49.444;11.054;2023-03-04T08:56:12;4.20;99.90
5346;DHT22;2695;49.444;11.054;2023-03-04T08:58:41;4.20;99.90
5346;DHT22;2695;49.444;11.054;2023-03-04T09:01:12;4.30;99.90
5346;DHT22;2695;49.444;11.054;2023-03-04T09:03:41;4.30;99.90
5346;DHT22;2695;49.444;11.054;2023-03-04T09:06:13;4.40;99.90
5346;DHT22;2695;49.444;11.054;2023-03-04T09:08:41;4.00;99.90
5346;DHT22;2695;49.444;11.054;2023-03-04T09:11:10;4.50;99.90
5346;DHT22;2695;49.444;11.054;2023-03-04T09:13:39;4.50;99.90
5346;DHT22;2695;49.444;11.054;2023-03-04T09:16:08;4.50;99.90
5346;DHT22;2695;49.444;11.054;2023-03-04T09:18:43;4.60;99.90
5346;DHT22;2695;49.444;11.054;2023-03-04T09:21:15;4.60;99.90
5346;DHT22;2695;49.444;11.054;2023-03-04T09:23:43;4.60;99.90
5346;DHT22;2695;49.444;11.054;2023-03-04T09:26:14;4.60;99.90
5346;DHT22;2695;49.444;11.054;2023-03-04T09:28:43;4.60;99.90
5346;DHT22;2695;49.444;11.054;2023-03-04T09:31:12;4.60;99.90
5346;DHT22;2695;49.444;11.054;2023-03-04T09:33:42;4.70;99.90
5346;DHT22;2695;49.444;11.054;2023-03-04T09:36:11;4.80;99.90
5346;DHT22;2695;49.444;11.054;2023-03-04T09:38:40;4.80;99.90
5346;DHT22;2695;49.444;11.054;2023-03-04T09:41:12;4.90;99.90
5346;DHT22;2695;49.444;11.054;2023-03-04T09:43:43;5.00;99.90
5346;DHT22;2695;49.444;11.054;2023-03-04T09:46:14;5.00;99.90
5346;DHT22;2695;49.444;11.054;2023-03-04T09:48:46;5.10;99.90
5346;DHT22;2695;49.444;11.054;2023-03-04T09:51:20;5.00;99.90
5346;DHT22;2695;49.444;11.054;2023-03-04T09:54:01;5.00;99.90
5346;DHT22;2695;49.444;11.054;2023-03-04T09:56:34;5.00;99.90
5346;DHT22;2695;49.444;11.054;2023-03-04T09:59:11;5.10;99.90
5346;DHT22;2695;49.444;11.054;2023-03-04T10:01:53;5.20;99.90
5346;DHT22;2695;49.444;11.054;2023-03-04T10:04:30;5.30;99.90
5346;DHT22;2695;49.444;11.054;2023-03-04T10:07:02;5.30;99.90
5346;DHT22;2695;49.444;11.054;2023-03-04T10:09:40;5.50;99.90
5346;DHT22;2695;49.444;11.054;2023-03-04T10:12:13;5.50;99.90
5346;DHT22;2695;49.444;11.054;2023-03-04T10:14:44;5.50;99.90
5346;DHT22;2695;49.444;11.054;2023-03-04T10:17:17;5.50;99.90
5346;DHT22;2695;49.444;11.054;2023-03-04T10:19:58;5.50;99.90
5346;DHT22;2695;49.444;11.054;2023-03-04T10:22:32;5.60;99.90
5346;DHT22;2695;49.444;11.054;2023-03-04T10:25:14;5.60;99.90
5346;DHT22;2695;49.444;11.054;2023-03-04T10:27:43;5.70;99.90
5346;DHT22;2695;49.444;11.054;2023-03-04T10:30:21;5.80;99.90
5346;DHT22;2695;49.444;11.054;2023-03-04T10:32:50;5.90;99.90
5346;DHT22;2695;49.444;11.054;2023-03-04T10:35:23;6.10;99.90
5346;DHT22;2695;49.444;11.054;2023-03-04T10:37:53;6.10;99.90
5346;DHT22;2695;49.444;11.054;2023-03-04T10:40:22;6.00;99.90
5346;DHT22;2695;49.444;11.054;2023-03-04T10:42:58;6.20;99.90
5346;DHT22;2695;49.444;11.054;2023-03-04T10:45:29;6.00;99.90
5346;DHT22;2695;49.444;11.054;2023-03-04T10:48:01;6.00;99.90
5346;DHT22;2695;49.444;11.054;2023-03-04T10:50:30;6.00;99.90
5346;DHT22;2695;49.444;11.054;2023-03-04T10:52:58;6.20;99.90
5346;DHT22;2695;49.444;11.054;2023-03-04T10:55:28;6.10;99.90
5346;DHT22;2695;49.444;11.054;2023-03-04T10:58:02;6.10;99.90
5346;DHT22;2695;49.444;11.054;2023-03-04T11:00:32;6.10;99.90
5346;DHT22;2695;49.444;11.054;2023-03-04T11:03:23;6.30;99.90
5346;DHT22;2695;49.444;11.054;2023-03-04T11:06:11;6.40;99.60
5346;DHT22;2695;49.444;11.054;2023-03-04T11:08:42;6.30;99.50
5346;DHT22;2695;49.444;11.054;2023-03-04T11:11:22;6.30;99.60
5346;DHT22;2695;49.444;11.054;2023-03-04T11:13:57;6.30;99.20
5346;DHT22;2695;49.444;11.054;2023-03-04T11:16:28;6.30;99.50
5346;DHT22;2695;49.444;11.054;2023-03-04T11:18:59;6.20;99.30
5346;DHT22;2695;49.444;11.054;2023-03-04T11:21:36;6.20;99.50
5346;DHT22;2695;49.444;11.054;2023-03-04T11:24:11;6.30;99.40
5346;DHT22;2695;49.444;11.054;2023-03-04T11:26:58;6.30;99.00
5346;DHT22;2695;49.444;11.054;2023-03-04T11:29:32;6.30;98.90
5346;DHT22;2695;49.444;11.054;2023-03-04T11:32:07;6.70;99.10
5346;DHT22;2695;49.444;11.054;2023-03-04T11:34:40;6.40;98.60
5346;DHT22;2695;49.444;11.054;2023-03-04T11:37:18;6.40;98.50
5346;DHT22;2695;49.444;11.054;2023-03-04T11:39:51;6.30;98.80
5346;DHT22;2695;49.444;11.054;2023-03-04T11:42:30;6.40;98.80
5346;DHT22;2695;49.444;11.054;2023-03-04T11:45:02;6.30;98.40
5346;DHT22;2695;49.444;11.054;2023-03-04T11:47:54;6.40;98.30
5346;DHT22;2695;49.444;11.054;2023-03-04T11:50:30;6.50;98.20
5346;DHT22;2695;49.444;11.054;2023-03-04T11:53:23;6.50;98.10
5346;DHT22;2695;49.444;11.054;2023-03-04T11:56:01;6.50;97.80
5346;DHT22;2695;49.444;11.054;2023-03-04T12:02:12;6.40;97.70
5346;DHT22;2695;49.444;11.054;2023-03-04T12:08:07;6.30;98.40
5346;DHT22;2695;49.444;11.054;2023-03-04T12:10:47;6.30;98.40
5346;DHT22;2695;49.444;11.054;2023-03-04T12:13:51;6.30;98.60
5346;DHT22;2695;49.444;11.054;2023-03-04T12:16:55;6.40;98.60
5346;DHT22;2695;49.444;11.054;2023-03-04T12:19:35;6.50;98.60
5346;DHT22;2695;49.444;11.054;2023-03-04T12:22:25;6.40;98.50
5346;DHT22;2695;49.444;11.054;2023-03-04T12:25:21;6.30;98.10
5346;DHT22;2695;49.444;11.054;2023-03-04T12:28:02;6.10;98.60
5346;DHT22;2695;49.444;11.054;2023-03-04T12:30:46;6.10;98.30
5346;DHT22;2695;49.444;11.054;2023-03-04T12:33:25;6.00;98.40
5346;DHT22;2695;49.444;11.054;2023-03-04T12:36:05;6.10;98.50
5346;DHT22;2695;49.444;11.054;2023-03-04T12:38:58;6.30;99.00
5346;DHT22;2695;49.444;11.054;2023-03-04T12:41:40;6.20;98.50
5346;DHT22;2695;49.444;11.054;2023-03-04T12:44:16;6.20;98.60
5346;DHT22;2695;49.444;11.054;2023-03-04T12:47:01;6.30;99.00
5346;DHT22;2695;49.444;11.054;2023-03-04T12:49:52;6.30;99.40
5346;DHT22;2695;49.444;11.054;2023-03-04T12:52:31;6.30;98.40
5346;DHT22;2695;49.444;11.054;2023-03-04T12:55:03;6.30;98.70
5346;DHT22;2695;49.444;11.054;2023-03-04T12:57:35;6.40;98.30
5346;DHT22;2695;49.444;11.054;2023-03-04T13:00:15;6.40;98.30
5346;DHT22;2695;49.444;11.054;2023-03-04T13:03:06;6.40;98.00
5346;DHT22;2695;49.444;11.054;2023-03-04T13:05:45;6.30;98.90
5346;DHT22;2695;49.444;11.054;2023-03-04T13:08:25;6.20;99.10
5346;DHT22;2695;49.444;11.054;2023-03-04T13:11:00;6.40;98.80
5346;DHT22;2695;49.444;11.054;2023-03-04T13:13:38;6.40;98.90
5346;DHT22;2695;49.444;11.054;2023-03-04T13:16:28;6.50;98.60
5346;DHT22;2695;49.444;11.054;2023-03-04T13:18:58;6.60;98.60
5346;DHT22;2695;49.444;11.054;2023-03-04T13:21:28;6.60;98.20
5346;DHT22;2695;49.444;11.054;2023-03-04T13:33:46;6.80;98.50
5346;DHT22;2695;49.444;11.054;2023-03-04T13:39:32;7.00;97.40
5346;DHT22;2695;49.444;11.054;2023-03-04T13:42:01;6.90;97.70
5346;DHT22;2695;49.444;11.054;2023-03-04T13:45:00;6.80;98.00
5346;DHT22;2695;49.444;11.054;2023-03-04T13:47:44;6.90;98.30
5346;DHT22;2695;49.444;11.054;2023-03-04T13:50:39;6.90;98.00
5346;DHT22;2695;49.444;11.054;2023-03-04T13:53:38;6.80;97.90
5346;DHT22;2695;49.444;11.054;2023-03-04T13:56:17;6.70;98.10
5346;DHT22;2695;49.444;11.054;2023-03-04T13:58:49;6.60;98.10
5346;DHT22;2695;49.444;11.054;2023-03-04T14:01:25;6.50;98.40
5346;DHT22;2695;49.444;11.054;2023-03-04T14:03:54;6.40;99.00
5346;DHT22;2695;49.444;11.054;2023-03-04T14:06:25;6.30;99.00
5346;DHT22;2695;49.444;11.054;2023-03-04T14:08:55;6.10;99.10
5346;DHT22;2695;49.444;11.054;2023-03-04T14:11:27;6.30;99.50
5346;DHT22;2695;49.444;11.054;2023-03-04T14:13:59;6.30;99.80
5346;DHT22;2695;49.444;11.054;2023-03-04T14:16:33;6.30;99.70
5346;DHT22;2695;49.444;11.054;2023-03-04T14:19:03;6.40;99.50
5346;DHT22;2695;49.444;11.054;2023-03-04T14:21:33;6.20;99.80
5346;DHT22;2695;49.444;11.054;2023-03-04T14:24:05;6.20;99.90
5346;DHT22;2695;49.444;11.054;2023-03-04T14:26:33;6.20;99.90
5346;DHT22;2695;49.444;11.054;2023-03-04T14:29:02;6.20;99.90
5346;DHT22;2695;49.444;11.054;2023-03-04T14:31:33;6.20;99.90
5346;DHT22;2695;49.444;11.054;2023-03-04T14:34:03;6.20;99.90
5346;DHT22;2695;49.444;11.054;2023-03-04T14:36:34;6.30;99.90
5346;DHT22;2695;49.444;11.054;2023-03-04T14:39:04;6.20;99.90
5346;DHT22;2695;49.444;11.054;2023-03-04T14:41:35;6.40;99.90
5346;DHT22;2695;49.444;11.054;2023-03-04T14:44:08;6.40;99.90
5346;DHT22;2695;49.444;11.054;2023-03-04T14:46:45;6.40;99.90
5346;DHT22;2695;49.444;11.054;2023-03-04T14:49:33;6.40;99.90
5346;DHT22;2695;49.444;11.054;2023-03-04T14:52:04;6.40;99.90
5346;DHT22;2695;49.444;11.054;2023-03-04T14:54:37;6.30;99.90
5346;DHT22;2695;49.444;11.054;2023-03-04T14:57:23;6.20;99.90
5346;DHT22;2695;49.444;11.054;2023-03-04T14:59:53;6.10;99.90
5346;DHT22;2695;49.444;11.054;2023-03-04T15:02:26;6.10;99.90
5346;DHT22;2695;49.444;11.054;2023-03-04T15:05:00;6.80;99.90
5346;DHT22;2695;49.444;11.054;2023-03-04T15:07:33;6.00;99.90
5346;DHT22;2695;49.444;11.054;2023-03-04T15:10:04;6.00;99.90
5346;DHT22;2695;49.444;11.054;2023-03-04T15:12:34;6.00;99.90
5346;DHT22;2695;49.444;11.054;2023-03-04T15:15:28;5.90;99.90
5346;DHT22;2695;49.444;11.054;2023-03-04T15:17:57;5.90;99.90
5346;DHT22;2695;49.444;11.054;2023-03-04T15:20:27;5.90;99.90
5346;DHT22;2695;49.444;11.054;2023-03-04T15:22:59;5.90;99.90
5346;DHT22;2695;49.444;11.054;2023-03-04T15:25:28;5.90;99.90
5346;DHT22;2695;49.444;11.054;2023-03-04T15:27:57;5.90;99.90
5346;DHT22;2695;49.444;11.054;2023-03-04T15:30:30;5.90;99.90
5346;DHT22;2695;49.444;11.054;2023-03-04T15:33:00;5.80;99.90
5346;DHT22;2695;49.444;11.054;2023-03-04T15:35:30;5.80;99.90
5346;DHT22;2695;49.444;11.054;2023-03-04T15:38:00;5.70;99.90
5346;DHT22;2695;49.444;11.054;2023-03-04T15:40:30;5.60;99.90
5346;DHT22;2695;49.444;11.054;2023-03-04T15:43:01;5.60;99.90
5346;DHT22;2695;49.444;11.054;2023-03-04T15:45:30;5.60;99.90
5346;DHT22;2695;49.444;11.054;2023-03-04T15:48:02;5.60;99.90
5346;DHT22;2695;49.444;11.054;2023-03-04T15:50:35;5.60;99.90
5346;DHT22;2695;49.444;11.054;2023-03-04T15:53:08;5.60;99.90
5346;DHT22;2695;49.444;11.054;2023-03-04T15:55:37;5.50;99.90
5346;DHT22;2695;49.444;11.054;2023-03-04T15:58:05;5.40;99.90
5346;DHT22;2695;49.444;11.054;2023-03-04T16:00:33;5.40;99.90
5346;DHT22;2695;49.444;11.054;2023-03-04T16:03:03;5.40;99.90
5346;DHT22;2695;49.444;11.054;2023-03-04T16:05:35;5.40;99.90
5346;DHT22;2695;49.444;11.054;2023-03-04T16:08:04;5.40;99.90
5346;DHT22;2695;49.444;11.054;2023-03-04T16:10:33;5.40;99.90
5346;DHT22;2695;49.444;11.054;2023-03-04T16:13:02;5.40;99.90
5346;DHT22;2695;49.444;11.054;2023-03-04T16:15:31;5.40;99.90
5346;DHT22;2695;49.444;11.054;2023-03-04T16:18:00;5.40;99.90
5346;DHT22;2695;49.444;11.054;2023-03-04T16:20:28;5.40;99.90
5346;DHT22;2695;49.444;11.054;2023-03-04T16:22:58;5.40;99.90
5346;DHT22;2695;49.444;11.054;2023-03-04T16:25:27;5.40;99.90
5346;DHT22;2695;49.444;11.054;2023-03-04T16:27:57;5.40;99.90
5346;DHT22;2695;49.444;11.054;2023-03-04T16:30:29;5.40;99.90
5346;DHT22;2695;49.444;11.054;2023-03-04T16:32:57;5.40;99.90
5346;DHT22;2695;49.444;11.054;2023-03-04T16:35:25;5.40;99.90
5346;DHT22;2695;49.444;11.054;2023-03-04T16:37:55;5.40;99.90
5346;DHT22;2695;49.444;11.054;2023-03-04T16:40:27;5.40;99.90
5346;DHT22;2695;49.444;11.054;2023-03-04T16:42:57;5.40;99.90
5346;DHT22;2695;49.444;11.054;2023-03-04T16:45:26;5.40;99.90
5346;DHT22;2695;49.444;11.054;2023-03-04T16:47:56;5.40;99.90